Time;durP1;ratioP1;P1;durP2;ratioP2;P2;SDS_P1;SDS_P2;PMS_P1;PMS_P2;Temp;Humidity;BMP_temperature;BMP_pressure;BME280_temperature;BME280_humidity;BME280_pressure;Samples;Min_cycle;Max_cycle;Signal;HPM_P1;HPM_P2
2023/12/05 00:01:53;;;;;;;46.00;25.30;;;;;;;-4.64;71.83;102151.15;107596;1254;99190;-61
2023/12/05 00:04:22;;;;;;;51.00;26.40;;;;;;;-4.57;71.82;102144.13;107605;1257;99708;-61
2023/12/05 00:06:51;;;;;;;49.20;25.60;;;;;;;-4.49;71.77;102149.34;107697;1251;113213;-61
2023/12/05 00:09:19;;;;;;;45.20;25.40;;;;;;;-4.43;71.48;102149.33;107722;1251;109686;-62
2023/12/05 00:11:48;;;;;;;44.90;24.70;;;;;;;-4.36;71.46;102159.11;107550;1251;107879;-60
2023/12/05 00:14:16;;;;;;;49.80;25.30;;;;;;;-4.31;71.67;102162.59;107519;1251;99166;-61
2023/12/05 00:16:44;;;;;;;45.10;24.90;;;;;;;-4.28;71.49;102159.60;107656;1251;99693;-62
2023/12/05 00:19:13;;;;;;;51.90;25.20;;;;;;;-4.26;71.46;102160.81;107592;1253;113164;-60
2023/12/05 00:21:41;;;;;;;45.80;23.00;;;;;;;-4.21;71.59;102156.08;107711;1251;109301;-62
2023/12/05 00:24:10;;;;;;;50.60;23.70;;;;;;;-4.17;71.40;102149.02;107675;1251;108203;-61
2023/12/05 00:26:38;;;;;;;45.80;23.80;;;;;;;-4.12;71.56;102150.92;107553;1253;99170;-61
2023/12/05 00:29:06;;;;;;;50.10;25.10;;;;;;;-4.11;71.44;102146.55;107629;1251;99288;-61
2023/12/05 00:31:34;;;;;;;50.50;25.70;;;;;;;-4.09;71.51;102136.90;107554;1251;112658;-61
2023/12/05 00:34:03;;;;;;;49.50;25.00;;;;;;;-4.06;71.37;102135.65;107600;1251;109378;-62
2023/12/05 00:36:31;;;;;;;48.80;25.00;;;;;;;-4.09;71.09;102133.92;107567;1251;108790;-62
2023/12/05 00:39:00;;;;;;;51.40;25.40;;;;;;;-4.08;71.20;102129.88;107581;1251;99189;-62
2023/12/05 00:41:29;;;;;;;47.90;24.70;;;;;;;-4.08;71.25;102130.42;107476;1254;101289;-60
2023/12/05 00:43:57;;;;;;;55.50;25.80;;;;;;;-4.10;71.35;102132.18;107670;1251;113202;-61
2023/12/05 00:46:27;;;;;;;51.20;25.50;;;;;;;-4.11;71.21;102131.83;107643;1251;109873;-61
2023/12/05 00:48:56;;;;;;;51.10;24.60;;;;;;;-4.14;70.99;102129.92;107651;1251;106788;-62
2023/12/05 00:51:25;;;;;;;47.40;23.80;;;;;;;-4.18;70.91;102132.58;107625;1252;99163;-63
2023/12/05 00:53:53;;;;;;;50.10;25.20;;;;;;;-4.25;70.58;102129.45;107613;1251;99684;-60
2023/12/05 00:56:22;;;;;;;49.20;24.00;;;;;;;-4.29;70.81;102132.10;107615;1257;112317;-62
2023/12/05 00:58:51;;;;;;;51.40;25.40;;;;;;;-4.36;70.39;102129.86;107603;1251;109664;-62
2023/12/05 01:01:19;;;;;;;48.40;23.80;;;;;;;-4.43;70.43;102125.16;107540;1253;107776;-61
2023/12/05 01:03:48;;;;;;;46.70;24.10;;;;;;;-4.48;70.48;102123.77;107647;1254;99296;-60
2023/12/05 01:06:16;;;;;;;50.70;25.60;;;;;;;-4.53;70.55;102124.14;107579;1254;99805;-62
2023/12/05 01:08:45;;;;;;;48.50;24.60;;;;;;;-4.56;70.34;102119.79;107655;1255;112625;-60
2023/12/05 01:11:13;;;;;;;43.50;23.30;;;;;;;-4.58;70.70;102113.14;107645;1254;109220;-60
2023/12/05 01:13:45;;;;;;;44.40;24.20;;;;;;;-4.59;70.91;102105.95;107604;1251;108162;-62
2023/12/05 01:16:14;;;;;;;44.00;23.00;;;;;;;-4.62;70.40;102103.35;107602;1251;99201;-62
2023/12/05 01:18:42;;;;;;;45.70;23.40;;;;;;;-4.65;70.57;102100.55;107646;1251;99737;-62
2023/12/05 01:21:11;;;;;;;45.90;24.00;;;;;;;-4.67;70.49;102094.27;107664;1251;113254;-60
2023/12/05 01:23:39;;;;;;;44.10;23.10;;;;;;;-4.69;70.88;102089.54;107668;1251;109751;-62
2023/12/05 01:26:07;;;;;;;48.70;23.10;;;;;;;-4.71;70.86;102089.55;107589;1250;107196;-60
2023/12/05 01:28:36;;;;;;;49.50;23.60;;;;;;;-4.73;70.85;102091.30;107574;1251;99247;-62
2023/12/05 01:31:04;;;;;;;41.80;21.50;;;;;;;-4.74;70.53;102097.44;107621;1256;99034;-62
2023/12/05 01:33:33;;;;;;;44.70;21.50;;;;;;;-4.74;70.68;102096.05;107687;1251;113039;-61
2023/12/05 01:36:01;;;;;;;43.30;21.70;;;;;;;-4.75;70.74;102101.65;107629;1251;111767;-59
2023/12/05 01:38:30;;;;;;;46.60;22.70;;;;;;;-4.76;70.90;102091.49;107571;1256;107696;-62
2023/12/05 01:40:58;;;;;;;44.70;23.50;;;;;;;-4.76;70.71;102085.02;107627;1254;99182;-61
2023/12/05 01:43:27;;;;;;;43.20;22.20;;;;;;;-4.77;70.90;102087.64;107672;1257;99097;-60
2023/12/05 01:45:57;;;;;;;47.20;22.70;;;;;;;-4.77;70.81;102083.63;107686;1251;113366;-63
2023/12/05 01:48:27;;;;;;;39.20;21.00;;;;;;;-4.76;70.83;102082.92;107689;1251;110787;-64
2023/12/05 01:50:56;;;;;;;51.20;24.00;;;;;;;-4.76;70.92;102074.16;107652;1251;106962;-61
2023/12/05 01:53:25;;;;;;;51.30;24.90;;;;;;;-4.74;70.85;102068.73;107623;1253;99220;-61
2023/12/05 01:55:54;;;;;;;46.60;25.50;;;;;;;-4.72;71.20;102053.85;107585;1251;99024;-63
2023/12/05 01:58:22;;;;;;;51.80;25.80;;;;;;;-4.69;71.05;102038.25;107600;1250;113086;-62
2023/12/05 02:00:51;;;;;;;47.90;25.50;;;;;;;-4.66;71.58;102025.98;107578;1251;110066;-61
2023/12/05 02:03:20;;;;;;;53.20;27.60;;;;;;;-4.61;71.68;102018.60;107529;1251;106702;-61
2023/12/05 02:05:49;;;;;;;46.90;25.40;;;;;;;-4.55;71.94;102014.20;107623;1251;99193;-60
2023/12/05 02:08:22;;;;;;;51.40;26.30;;;;;;;-4.49;71.92;102009.43;107642;1256;99087;-61
2023/12/05 02:10:50;;;;;;;47.30;24.80;;;;;;;-4.45;72.42;102010.98;107665;1251;112222;-60
2023/12/05 02:13:18;;;;;;;46.40;22.70;;;;;;;-4.40;72.52;102004.13;107624;1251;109601;-62
2023/12/05 02:16:01;;;;;;;48.60;24.40;;;;;;;-4.35;72.49;102003.57;107617;1251;108264;-61
2023/12/05 02:18:38;;;;;;;46.50;23.10;;;;;;;-4.30;72.98;101996.52;107615;1251;99073;-60
2023/12/05 02:21:15;;;;;;;44.20;24.10;;;;;;;-4.23;72.98;101992.80;107660;1251;99250;-61
2023/12/05 02:24:04;;;;;;;50.50;26.50;;;;;;;-4.17;72.97;101986.44;107611;1251;111905;-63
2023/12/05 02:26:42;;;;;;;50.60;22.40;;;;;;;-4.15;72.64;101979.25;107661;1255;109250;-62
2023/12/05 02:29:11;;;;;;;50.50;22.10;;;;;;;-4.17;73.01;101976.45;107626;1251;108609;-61
2023/12/05 02:31:39;;;;;;;41.00;21.70;;;;;;;-4.17;73.24;101971.04;107585;1251;99204;-62
2023/12/05 02:34:08;;;;;;;45.60;22.20;;;;;;;-4.13;73.24;101967.14;107670;1251;99074;-60
2023/12/05 02:36:55;;;;;;;40.80;22.50;;;;;;;-4.07;73.22;101966.73;107664;1251;112228;-61
2023/12/05 02:39:40;;;;;;;55.70;22.90;;;;;;;-4.02;73.46;101974.06;107647;1254;109732;-60
2023/12/05 02:42:13;;;;;;;46.80;22.60;;;;;;;-3.99;73.71;101978.41;107635;1255;108290;-62
2023/12/05 02:44:46;;;;;;;36.20;20.00;;;;;;;-4.03;73.57;101981.95;107621;1257;99239;-63
2023/12/05 02:47:17;;;;;;;44.80;22.20;;;;;;;-4.08;73.38;101978.13;107707;1256;99093;-62
2023/12/05 02:49:46;;;;;;;49.10;23.00;;;;;;;-4.12;73.92;101974.66;107803;1251;111591;-61
2023/12/05 02:52:21;;;;;;;43.00;21.70;;;;;;;-4.12;75.07;101970.98;107533;1253;110058;-60
2023/12/05 02:54:50;;;;;;;50.10;23.40;;;;;;;-4.10;75.58;101963.09;107624;1254;109361;-60
2023/12/05 02:57:18;;;;;;;44.10;22.30;;;;;;;-4.06;76.00;101960.95;107624;1252;99160;-61
2023/12/05 02:59:46;;;;;;;54.50;24.20;;;;;;;-4.04;76.37;101964.79;107464;1251;97975;-61
2023/12/05 03:02:15;;;;;;;43.50;22.60;;;;;;;-4.00;75.91;101968.80;107670;1251;112616;-61
2023/12/05 03:04:43;;;;;;;49.00;23.60;;;;;;;-3.97;76.64;101969.11;107581;1251;110995;-63
2023/12/05 03:07:12;;;;;;;48.70;22.20;;;;;;;-3.93;76.88;101970.30;107537;1249;108205;-61
2023/12/05 03:09:41;;;;;;;43.90;23.00;;;;;;;-3.90;76.63;101970.82;107588;1249;99365;-62
2023/12/05 03:12:09;;;;;;;41.60;22.40;;;;;;;-3.87;77.05;101969.90;107572;1251;99069;-62
2023/12/05 03:14:38;;;;;;;44.00;23.40;;;;;;;-3.78;77.41;101955.27;107674;1256;113075;-62
2023/12/05 03:17:06;;;;;;;48.40;24.00;;;;;;;-3.72;78.09;101948.89;107593;1254;109792;-61
2023/12/05 03:19:37;;;;;;;48.20;24.60;;;;;;;-3.63;78.04;101951.42;107599;1251;107257;-61
2023/12/05 03:22:05;;;;;;;38.80;21.40;;;;;;;-3.56;78.22;101948.91;107502;1251;99305;-60
2023/12/05 03:24:34;;;;;;;45.40;23.70;;;;;;;-3.56;77.95;101939.96;107619;1251;99295;-62
2023/12/05 03:27:03;;;;;;;47.60;24.60;;;;;;;-3.58;77.58;101938.40;107608;1251;112422;-61
2023/12/05 03:29:31;;;;;;;42.70;22.70;;;;;;;-3.61;77.84;101935.29;107641;1251;110004;-65
2023/12/05 03:31:59;;;;;;;41.70;21.90;;;;;;;-3.63;77.73;101940.22;107670;1256;108378;-60
2023/12/05 03:34:28;;;;;;;44.80;23.40;;;;;;;-3.64;77.64;101941.64;107585;1251;99276;-60
2023/12/05 03:36:56;;;;;;;43.50;23.20;;;;;;;-3.66;78.23;101942.17;107635;1251;99816;-61
2023/12/05 03:39:24;;;;;;;52.90;23.30;;;;;;;-3.67;77.56;101933.94;107654;1251;113398;-63
2023/12/05 03:41:52;;;;;;;41.40;22.20;;;;;;;-3.67;77.73;101927.80;107638;1251;109689;-62
2023/12/05 03:44:21;;;;;;;45.60;23.20;;;;;;;-3.66;77.84;101920.77;107583;1254;108071;-61
2023/12/05 03:46:50;;;;;;;47.80;24.20;;;;;;;-3.65;77.87;101919.02;107613;1253;99307;-61
2023/12/05 03:49:18;;;;;;;44.80;23.30;;;;;;;-3.66;77.76;101918.68;107638;1251;99705;-61
2023/12/05 03:51:47;;;;;;;50.50;24.20;;;;;;;-3.64;77.84;101915.84;107611;1251;114131;-62
2023/12/05 03:54:15;;;;;;;46.40;22.80;;;;;;;-3.58;78.09;101908.42;107625;1251;110220;-61
2023/12/05 03:56:43;;;;;;;48.70;23.40;;;;;;;-3.52;78.45;101903.62;107476;1257;107733;-61
2023/12/05 03:59:12;;;;;;;47.10;23.70;;;;;;;-3.48;78.38;101902.52;107410;1255;99286;-61
2023/12/05 04:01:40;;;;;;;37.30;20.00;;;;;;;-3.49;78.00;101898.14;107599;1253;99250;-62
2023/12/05 04:04:09;;;;;;;43.30;21.80;;;;;;;-3.51;77.93;101897.83;107653;1251;113778;-60
2023/12/05 04:06:37;;;;;;;44.30;22.00;;;;;;;-3.53;78.05;101892.05;107634;1251;109695;-60
2023/12/05 04:09:06;;;;;;;43.60;21.00;;;;;;;-3.52;78.15;101897.83;107634;1251;108278;-61
2023/12/05 04:11:34;;;;;;;45.60;21.80;;;;;;;-3.51;78.47;101908.35;107583;1251;99198;-61
2023/12/05 04:14:03;;;;;;;47.80;22.50;;;;;;;-3.47;78.38;101913.38;107627;1254;99077;-62
2023/12/05 04:16:32;;;;;;;43.40;23.70;;;;;;;-3.44;78.19;101907.91;107603;1251;112430;-62
2023/12/05 04:19:00;;;;;;;44.70;22.90;;;;;;;-3.41;78.33;101905.60;107409;1252;110879;-62
2023/12/05 04:21:29;;;;;;;45.10;23.10;;;;;;;-3.39;78.48;101904.69;107606;1253;107875;-61
2023/12/05 04:23:57;;;;;;;47.40;23.40;;;;;;;-3.37;78.39;101909.76;107537;1251;99225;-63
2023/12/05 04:26:26;;;;;;;42.70;21.40;;;;;;;-3.35;78.73;101906.73;107647;1251;99119;-61
2023/12/05 04:28:57;;;;;;;39.20;20.00;;;;;;;-3.32;79.06;101912.67;107609;1254;112959;-62
2023/12/05 04:31:26;;;;;;;43.00;22.00;;;;;;;-3.28;78.71;101909.28;107423;1253;109182;-62
2023/12/05 04:33:56;;;;;;;43.60;22.60;;;;;;;-3.25;78.66;101905.21;107658;1251;107063;-60
2023/12/05 04:36:24;;;;;;;42.80;22.30;;;;;;;-3.20;78.94;101898.49;107688;1256;99717;-61
2023/12/05 04:38:53;;;;;;;44.90;21.70;;;;;;;-3.21;79.06;101894.29;107560;1253;99093;-61
2023/12/05 04:41:21;;;;;;;45.50;23.60;;;;;;;-3.22;78.76;101881.67;107622;1253;112474;-61
2023/12/05 04:43:50;;;;;;;40.90;22.10;;;;;;;-3.22;78.62;101880.80;107631;1251;109111;-61
2023/12/05 04:46:18;;;;;;;44.20;22.80;;;;;;;-3.23;78.78;101870.80;107556;1253;107931;-61
2023/12/05 04:48:47;;;;;;;39.10;22.20;;;;;;;-3.24;78.28;101872.74;107620;1253;99252;-62
2023/12/05 04:51:19;;;;;;;42.00;23.40;;;;;;;-3.24;78.39;101877.14;107588;1255;99073;-61
2023/12/05 04:53:48;;;;;;;44.50;22.90;;;;;;;-3.25;78.23;101874.17;107424;1253;112704;-62
2023/12/05 04:56:16;;;;;;;45.40;23.30;;;;;;;-3.25;78.50;101862.05;107612;1253;108713;-61
2023/12/05 04:58:44;;;;;;;48.50;23.40;;;;;;;-3.24;78.81;101858.54;107628;1253;107609;-63
2023/12/05 05:01:13;;;;;;;49.10;21.60;;;;;;;-3.22;79.05;101840.08;107597;1251;99184;-61
2023/12/05 05:03:41;;;;;;;44.00;20.70;;;;;;;-3.19;79.38;101839.34;107628;1255;99182;-62
2023/12/05 05:06:10;;;;;;;36.00;20.00;;;;;;;-3.13;79.54;101832.94;107615;1251;112845;-62
2023/12/05 05:08:39;;;;;;;42.40;19.90;;;;;;;-3.05;79.99;101828.80;107631;1251;109473;-60
2023/12/05 05:11:07;;;;;;;43.40;21.60;;;;;;;-2.97;80.32;101824.98;107605;1251;107485;-61
2023/12/05 05:13:36;;;;;;;43.50;20.80;;;;;;;-2.92;79.76;101824.91;107606;1251;99074;-62
2023/12/05 05:16:16;;;;;;;44.00;21.40;;;;;;;-2.96;79.58;101825.15;107639;1251;99131;-61
2023/12/05 05:18:44;;;;;;;42.80;21.40;;;;;;;-3.02;79.62;101822.96;107614;1251;112031;-60
2023/12/05 05:21:13;;;;;;;42.40;20.30;;;;;;;-3.07;79.26;101825.30;107599;1251;108948;-61
2023/12/05 05:23:41;;;;;;;41.60;20.10;;;;;;;-3.13;78.98;101836.27;107604;1252;108586;-61
2023/12/05 05:26:09;;;;;;;44.00;22.40;;;;;;;-3.18;78.95;101845.64;107648;1255;99203;-61
2023/12/05 05:28:38;;;;;;;37.90;20.60;;;;;;;-3.24;78.95;101847.30;107616;1251;99064;-63
2023/12/05 05:31:06;;;;;;;41.70;21.50;;;;;;;-3.27;78.85;101845.58;107468;1251;112975;-61
2023/12/05 05:33:35;;;;;;;42.70;23.40;;;;;;;-3.29;79.10;101842.80;107648;1251;109233;-62
2023/12/05 05:36:04;;;;;;;46.20;22.90;;;;;;;-3.29;79.02;101833.17;107633;1256;107261;-62
2023/12/05 05:38:32;;;;;;;57.40;22.10;;;;;;;-3.30;79.20;101819.50;107692;1251;99182;-63
2023/12/05 05:41:05;;;;;;;46.90;21.90;;;;;;;-3.33;79.70;101815.15;107559;1251;99079;-61
2023/12/05 05:43:34;;;;;;;39.20;20.70;;;;;;;-3.32;79.68;101805.49;107550;1251;112795;-61
2023/12/05 05:46:03;;;;;;;51.70;23.80;;;;;;;-3.22;79.98;101797.62;107617;1253;109999;-61
2023/12/05 05:48:31;;;;;;;48.00;23.00;;;;;;;-3.14;80.02;101800.49;107621;1253;108143;-62
2023/12/05 05:51:00;;;;;;;48.90;24.10;;;;;;;-3.11;79.75;101801.67;107617;1251;99183;-61
2023/12/05 05:53:29;;;;;;;49.50;23.60;;;;;;;-3.13;79.49;101796.80;107653;1251;99722;-62
2023/12/05 05:56:00;;;;;;;46.60;24.90;;;;;;;-3.22;79.10;101793.41;107621;1254;111960;-62
2023/12/05 05:58:28;;;;;;;49.00;23.10;;;;;;;-3.28;78.78;101792.46;107641;1251;109523;-62
2023/12/05 06:00:57;;;;;;;48.30;23.50;;;;;;;-3.32;78.89;101798.98;107579;1251;108165;-61
2023/12/05 06:03:28;;;;;;;43.30;22.00;;;;;;;-3.35;78.42;101793.61;107596;1251;99191;-61
2023/12/05 06:05:58;;;;;;;47.40;23.40;;;;;;;-3.39;78.61;101792.07;107685;1251;99071;-61
2023/12/05 06:08:27;;;;;;;49.80;25.10;;;;;;;-3.41;79.04;101791.59;107593;1251;111635;-63
2023/12/05 06:10:56;;;;;;;49.90;24.20;;;;;;;-3.39;79.27;101787.01;107654;1251;109746;-62
2023/12/05 06:13:25;;;;;;;40.50;22.60;;;;;;;-3.40;78.96;101785.24;107611;1255;108311;-62
2023/12/05 06:15:53;;;;;;;49.20;23.30;;;;;;;-3.39;79.03;101795.06;107647;1255;99256;-63
2023/12/05 06:18:22;;;;;;;59.60;24.40;;;;;;;-3.36;78.79;101799.59;107667;1251;99054;-61
2023/12/05 06:20:56;;;;;;;45.70;25.30;;;;;;;-3.29;79.25;101790.88;107588;1251;113115;-64
2023/12/05 06:23:25;;;;;;;44.80;23.60;;;;;;;-3.18;79.51;101788.09;107632;1251;110049;-63
2023/12/05 06:25:54;;;;;;;46.00;22.10;;;;;;;-3.05;79.89;101785.27;107612;1251;107716;-61
2023/12/05 06:28:22;;;;;;;47.80;24.10;;;;;;;-2.97;79.16;101787.60;107666;1251;99233;-62
2023/12/05 06:30:51;;;;;;;53.60;25.30;;;;;;;-2.94;79.28;101789.13;107659;1253;99975;-63
2023/12/05 06:33:20;;;;;;;45.70;24.10;;;;;;;-2.90;79.31;101785.02;107630;1253;113247;-60
2023/12/05 06:35:49;;;;;;;47.00;24.70;;;;;;;-2.85;78.84;101770.91;107630;1251;110763;-62
2023/12/05 06:38:17;;;;;;;52.70;24.00;;;;;;;-2.78;78.83;101769.38;107553;1251;108323;-63
2023/12/05 06:40:45;;;;;;;51.40;24.00;;;;;;;-2.70;78.98;101766.77;107547;1251;99186;-62
2023/12/05 06:43:14;;;;;;;49.70;23.50;;;;;;;-2.61;79.36;101765.22;107496;1253;99809;-62
2023/12/05 06:45:43;;;;;;;38.50;20.10;;;;;;;-2.51;78.78;101762.44;107639;1253;111969;-61
2023/12/05 06:48:12;;;;;;;44.20;21.80;;;;;;;-2.42;78.70;101761.20;107707;1250;109007;-61
2023/12/05 06:50:45;;;;;;;42.00;21.10;;;;;;;-2.33;79.05;101753.66;107565;1249;108241;-63
2023/12/05 06:53:14;;;;;;;42.80;20.90;;;;;;;-2.23;79.12;101753.81;107591;1249;99195;-62
2023/12/05 06:55:42;;;;;;;34.90;18.80;;;;;;;-2.09;79.07;101754.43;107629;1253;99083;-63
2023/12/05 06:58:10;;;;;;;47.40;20.20;;;;;;;-1.95;79.27;101759.60;107620;1253;113537;-62
2023/12/05 07:00:39;;;;;;;37.20;19.90;;;;;;;-1.81;79.20;101757.54;107588;1253;110278;-61
2023/12/05 07:03:08;;;;;;;34.50;19.40;;;;;;;-1.69;79.03;101751.31;107637;1253;107545;-62
2023/12/05 07:05:36;;;;;;;36.10;19.20;;;;;;;-1.62;78.74;101737.96;107607;1253;99311;-62
2023/12/05 07:08:06;;;;;;;35.90;18.10;;;;;;;-1.56;78.66;101726.03;107632;1251;99791;-62
2023/12/05 07:10:35;;;;;;;31.50;17.80;;;;;;;-1.51;78.43;101710.64;107619;1251;112263;-62
2023/12/05 07:13:03;;;;;;;35.80;19.30;;;;;;;-1.46;78.18;101691.15;107605;1251;108612;-61
2023/12/05 07:15:31;;;;;;;33.20;17.90;;;;;;;-1.42;78.01;101692.48;107620;1250;108007;-62
2023/12/05 07:18:00;;;;;;;34.00;17.40;;;;;;;-1.39;77.85;101693.45;107602;1250;99174;-63
2023/12/05 07:20:28;;;;;;;32.00;17.00;;;;;;;-1.36;77.59;101680.20;107591;1249;99192;-62
2023/12/05 07:22:57;;;;;;;31.20;16.20;;;;;;;-1.34;77.38;101666.77;107618;1250;113369;-61
2023/12/05 07:25:25;;;;;;;42.10;18.50;;;;;;;-1.33;77.14;101666.75;107655;1251;109693;-61
2023/12/05 07:27:53;;;;;;;35.40;17.80;;;;;;;-1.33;77.21;101655.64;107611;1250;108370;-65
2023/12/05 07:30:22;;;;;;;35.50;15.60;;;;;;;-1.29;77.24;101660.14;107575;1251;99330;-65
2023/12/05 07:32:51;;;;;;;35.80;18.00;;;;;;;-1.25;76.97;101664.97;107579;1250;99166;-62
2023/12/05 07:35:19;;;;;;;34.60;17.40;;;;;;;-1.22;77.21;101672.98;107634;1250;112491;-61
2023/12/05 07:37:49;;;;;;;38.90;16.50;;;;;;;-1.18;76.93;101683.09;107680;1255;109658;-61
2023/12/05 07:40:17;;;;;;;32.60;18.00;;;;;;;-1.12;77.11;101690.86;107695;1251;106886;-61
2023/12/05 07:42:46;;;;;;;41.30;19.80;;;;;;;-1.05;76.92;101697.57;107709;1250;99304;-62
2023/12/05 07:45:16;;;;;;;30.30;15.60;;;;;;;-0.98;76.93;101703.73;107619;1251;99726;-61
2023/12/05 07:47:47;;;;;;;41.20;16.00;;;;;;;-0.89;76.87;101714.79;107590;1251;112000;-61
2023/12/05 07:50:16;;;;;;;35.20;15.90;;;;;;;-0.79;76.60;101719.44;107615;1251;107054;-62
2023/12/05 07:52:51;;;;;;;41.80;16.80;;;;;;;-0.67;76.69;101724.97;107603;1251;107821;-63
2023/12/05 07:55:19;;;;;;;26.40;15.10;;;;;;;-0.54;76.50;101731.48;107658;1250;99182;-62
2023/12/05 07:57:48;;;;;;;27.90;16.10;;;;;;;-0.42;76.44;101727.99;107589;1251;99081;-63
2023/12/05 08:00:18;;;;;;;31.40;17.20;;;;;;;-0.32;76.17;101727.71;107601;1250;113226;-62
2023/12/05 08:02:47;;;;;;;39.40;18.70;;;;;;;-0.19;75.86;101726.84;107582;1251;110083;-62
2023/12/05 08:05:15;;;;;;;32.50;17.20;;;;;;;-0.05;75.77;101722.20;107572;1250;107718;-61
2023/12/05 08:07:44;;;;;;;34.50;15.40;;;;;;;0.13;75.66;101726.80;107479;1251;99276;-61
2023/12/05 08:10:12;;;;;;;29.80;16.10;;;;;;;0.23;75.13;101727.03;107464;1251;99256;-61
2023/12/05 08:12:40;;;;;;;31.60;15.80;;;;;;;0.26;74.97;101728.86;107516;1251;113521;-61
2023/12/05 08:15:09;;;;;;;33.00;16.10;;;;;;;0.34;74.79;101730.06;107529;1253;109104;-62
2023/12/05 08:17:37;;;;;;;33.50;16.70;;;;;;;0.39;74.88;101732.38;107674;1252;106513;-62
2023/12/05 08:20:06;;;;;;;33.10;16.10;;;;;;;0.45;74.94;101735.89;107616;1253;99193;-63
2023/12/05 08:22:34;;;;;;;31.20;15.10;;;;;;;0.50;74.41;101729.91;107684;1252;99730;-62
2023/12/05 08:25:07;;;;;;;36.30;15.90;;;;;;;0.46;73.79;101722.80;107606;1253;112954;-62
2023/12/05 08:27:36;;;;;;;34.70;15.40;;;;;;;0.39;73.48;101719.66;107629;1253;109952;-63
2023/12/05 08:30:05;;;;;;;34.10;15.90;;;;;;;0.35;73.61;101718.40;107644;1250;106569;-64
2023/12/05 08:32:34;;;;;;;29.60;15.70;;;;;;;0.33;73.36;101717.37;107547;1251;99285;-62
2023/12/05 08:35:03;;;;;;;30.50;16.90;;;;;;;0.30;73.86;101718.85;107542;1253;99733;-63
2023/12/05 08:37:32;;;;;;;32.40;16.50;;;;;;;0.35;73.94;101714.67;107677;1253;112490;-63
2023/12/05 08:40:00;;;;;;;40.90;18.30;;;;;;;0.40;73.64;101713.27;107707;1251;109785;-61
2023/12/05 08:42:29;;;;;;;34.80;17.20;;;;;;;0.43;73.30;101693.95;107451;1251;108555;-62
2023/12/05 08:44:57;;;;;;;42.80;18.40;;;;;;;0.46;73.61;101690.67;107608;1251;99189;-61
2023/12/05 08:47:25;;;;;;;40.20;18.90;;;;;;;0.46;73.21;101686.08;107485;1253;99060;-61
2023/12/05 08:49:54;;;;;;;28.40;17.30;;;;;;;0.43;73.34;101685.12;107490;1257;111698;-60
2023/12/05 08:52:23;;;;;;;29.10;16.20;;;;;;;0.45;73.47;101688.75;107481;1253;109682;-62
2023/12/05 08:54:51;;;;;;;29.60;14.30;;;;;;;0.44;73.56;101670.80;107460;1251;108167;-62
2023/12/05 08:57:20;;;;;;;27.70;14.20;;;;;;;0.43;73.86;101666.23;107625;1255;99292;-62
2023/12/05 08:59:48;;;;;;;34.20;16.90;;;;;;;0.47;74.05;101664.17;107657;1253;99788;-62
2023/12/05 09:02:19;;;;;;;28.30;16.20;;;;;;;0.53;74.24;101659.23;107541;1251;113477;-62
2023/12/05 09:04:47;;;;;;;31.20;14.80;;;;;;;0.57;74.25;101656.09;107496;1251;110002;-64
2023/12/05 09:07:15;;;;;;;28.80;14.70;;;;;;;0.62;74.11;101653.61;107577;1251;107268;-62
2023/12/05 09:09:44;;;;;;;26.20;14.30;;;;;;;0.69;74.36;101659.77;107534;1251;99717;-62
2023/12/05 09:12:15;;;;;;;26.60;13.50;;;;;;;0.76;74.06;101660.08;107533;1251;99162;-62
2023/12/05 09:14:44;;;;;;;29.00;14.90;;;;;;;0.80;74.21;101660.48;107525;1251;112900;-63
2023/12/05 09:17:12;;;;;;;29.70;13.90;;;;;;;0.84;73.81;101649.92;107565;1251;109684;-63
2023/12/05 09:19:41;;;;;;;32.90;14.80;;;;;;;0.89;73.92;101631.56;107549;1251;109581;-63
2023/12/05 09:22:09;;;;;;;31.00;16.70;;;;;;;0.97;73.56;101614.34;107533;1254;99247;-61
2023/12/05 09:24:37;;;;;;;31.50;15.80;;;;;;;1.02;73.42;101608.31;107601;1251;99066;-61
2023/12/05 09:27:05;;;;;;;30.70;14.20;;;;;;;1.09;73.39;101609.67;107562;1251;112224;-65
2023/12/05 09:29:34;;;;;;;31.70;15.60;;;;;;;1.13;73.29;101609.52;107545;1251;109127;-62
2023/12/05 09:32:17;;;;;;;29.70;14.90;;;;;;;1.16;73.12;101606.61;107618;1251;107514;-67
2023/12/05 09:34:46;;;;;;;23.90;13.40;;;;;;;1.17;72.99;101606.20;107597;1251;99170;-65
2023/12/05 09:37:14;;;;;;;33.00;13.60;;;;;;;1.19;72.68;101598.71;107588;1251;99739;-61
2023/12/05 09:39:42;;;;;;;23.40;12.90;;;;;;;1.21;72.80;101589.29;107552;1251;113183;-63
2023/12/05 09:42:13;;;;;;;28.30;12.90;;;;;;;1.25;72.59;101574.48;107587;1251;108687;-61
2023/12/05 09:44:47;;;;;;;24.60;12.30;;;;;;;1.31;72.56;101572.65;107519;1251;108658;-62
2023/12/05 09:47:20;;;;;;;27.80;12.30;;;;;;;1.37;72.65;101565.17;107624;1251;99174;-62
2023/12/05 09:49:48;;;;;;;25.20;13.00;;;;;;;1.42;72.22;101558.81;107600;1251;99085;-61
2023/12/05 09:52:19;;;;;;;22.80;11.90;;;;;;;1.48;72.61;101555.95;107617;1254;112582;-62
2023/12/05 09:54:50;;;;;;;23.80;11.60;;;;;;;1.53;72.50;101548.13;107621;1254;109455;-61
2023/12/05 09:57:19;;;;;;;27.80;12.00;;;;;;;1.60;72.43;101545.96;107592;1254;108064;-61
2023/12/05 09:59:47;;;;;;;27.20;11.20;;;;;;;1.64;72.24;101544.55;107601;1252;99166;-63
2023/12/05 10:02:19;;;;;;;25.80;10.80;;;;;;;1.68;72.04;101542.27;107611;1251;99714;-63
2023/12/05 10:04:54;;;;;;;21.70;9.40;;;;;;;1.72;72.27;101545.99;107635;1251;111670;-61
2023/12/05 10:07:26;;;;;;;21.10;11.20;;;;;;;1.77;71.96;101533.60;107608;1251;109953;-63
2023/12/05 10:09:55;;;;;;;27.00;14.50;;;;;;;1.83;72.08;101533.88;107596;1250;108576;-62
2023/12/05 10:12:23;;;;;;;24.20;11.10;;;;;;;1.90;71.80;101530.45;106964;1253;609345;-64
2023/12/05 10:14:53;;;;;;;26.10;12.10;;;;;;;1.97;71.84;101526.99;107658;1253;99195;-62
2023/12/05 10:17:21;;;;;;;16.60;9.30;;;;;;;2.05;71.26;101519.23;107650;1251;112444;-61
2023/12/05 10:19:50;;;;;;;17.50;8.90;;;;;;;2.14;70.88;101516.54;107617;1253;108765;-61
2023/12/05 10:22:18;;;;;;;19.60;9.00;;;;;;;2.29;69.79;101504.29;107563;1251;106233;-62
2023/12/05 10:24:48;;;;;;;16.50;9.00;;;;;;;2.36;69.85;101498.81;107598;1251;99218;-62
2023/12/05 10:27:16;;;;;;;19.40;9.70;;;;;;;2.43;69.65;101498.54;107630;1253;99841;-62
2023/12/05 10:29:44;;;;;;;17.10;9.60;;;;;;;2.53;69.08;101502.01;107606;1251;112171;-63
2023/12/05 10:32:13;;;;;;;21.20;9.50;;;;;;;2.59;69.04;101498.92;107644;1251;109323;-63
2023/12/05 10:34:47;;;;;;;16.50;9.50;;;;;;;2.64;68.80;101500.27;107620;1254;106132;-62
2023/12/05 10:37:34;;;;;;;;;;;;;;;2.69;68.90;101495.83;107570;1251;99057;-63
2023/12/05 10:40:04;;;;;;;21.50;9.80;;;;;;;2.76;68.30;101504.74;107650;1251;100644;-63
2023/12/05 10:42:33;;;;;;;27.70;13.30;;;;;;;2.80;68.32;101495.52;107616;1253;112454;-64
2023/12/05 10:45:06;;;;;;;19.90;11.80;;;;;;;2.84;68.32;101491.81;107619;1251;109953;-62
2023/12/05 10:47:34;;;;;;;33.50;11.90;;;;;;;2.90;68.52;101486.95;107591;1253;107965;-63
2023/12/05 10:50:03;;;;;;;21.60;8.70;;;;;;;2.96;68.57;101485.95;107594;1251;99318;-64
2023/12/05 10:52:34;;;;;;;20.60;9.00;;;;;;;3.01;68.24;101480.79;107607;1253;99191;-64
2023/12/05 10:55:02;;;;;;;17.60;9.00;;;;;;;3.05;68.08;101477.56;107594;1251;114358;-61
2023/12/05 10:57:36;;;;;;;25.10;8.90;;;;;;;3.12;67.73;101470.68;107648;1250;109084;-62
2023/12/05 11:00:05;;;;;;;16.70;8.70;;;;;;;3.20;67.48;101465.39;107675;1251;107317;-62
2023/12/05 11:02:36;;;;;;;17.90;8.70;;;;;;;3.27;67.36;101463.63;107561;1251;99283;-63
2023/12/05 11:05:08;;;;;;;15.30;8.30;;;;;;;3.36;67.08;101469.43;107696;1250;100279;-63
2023/12/05 11:07:36;;;;;;;24.00;8.60;;;;;;;3.43;66.23;101459.69;107618;1253;113321;-62
2023/12/05 11:10:07;;;;;;;15.90;8.10;;;;;;;3.47;65.65;101458.08;107608;1255;108422;-63